Dillon, CO

12:03 PM MDT on September 23, 2014 (GMT -0600)
Copper Mountain | Change Station
CLOSE
Current Station
Airport
Location: Copper Mountain,
Elevation: 12073 ft
Nearby Weather Stations

Elev 12073 ft 39.48 °N, 106.15 °W | Updated 8 minutes ago

Mostly Cloudy
Mostly Cloudy
50 °F
Feels Like 50 °F
N
23
Wind Variable Wind from West
Gusts 33 mph

Today
High -- | Low -- °F
--% Chance of Precip.
Yesterday
High -- | Low -- °F
Precip. -- in
6:52 AM 6:59 PM
Waning Crescent, 0% visible
Pressure 30.59 in
Visibility 10.0 miles
Clouds Scattered Clouds 2600 ft
Scattered Clouds 3300 ft
Scattered Clouds 4900 ft
Dew Point 32 °F
Humidity 50%
Rainfall 0.00 in
Snow Depth 0 in , 85 in , 0 in
UV 7 out of 12
Pollen 6.10 out of 12
Air Quality Not available.
Flu Activity Not available.
METAR KCCU 231755Z AUTO 26020G29KT 10SM SCT026 SCT033 SCT049 10/00 A3059 RMK AO2

More Conditions Fewer Conditions

Pressure 30.59 in
Visibility 10.0 miles
Clouds Scattered Clouds 2600 ft
Scattered Clouds 3300 ft
Scattered Clouds 4900 ft
Dew Point 32 °F
Humidity 50%
Rainfall 0.00 in
Snow Depth 0 in , 85 in , 0 in
UV 7 out of 12
Pollen 6.10 out of 12
Air Quality Not available.
Flu Activity Not available.
METAR KCCU 231755Z AUTO 26020G29KT 10SM SCT026 SCT033 SCT049 10/00 A3059 RMK AO2

More Conditions Fewer Conditions

Nowcast | as of 11:47 am MDT on September 23, 2014

Isolated light rain showers will move across north central mountains of Colorado through the early afternoon hours. West winds at 20 to 35 mph will continue in areas above timberline...but diminish some later in the afternoon.

×

10-Day Weather Forecast

Almanac

Astronomy

Sep. 23, 2014 Rise Set
Actual Time 6:52 AM MDT 6:59 PM MDT
Civil Twilight 6:25 AM MDT 7:26 PM MDT
Nautical Twilight 5:54 AM MDT 7:57 PM MDT
Astronomical Twilight 5:22 AM MDT 8:29 PM MDT
Moon 6:19 AM MDT 6:39 PM MDT
Length of Visible Light 13h 00m
Length of Day
12h 06m
Tomorrow will be 2m 34s shorter.
Waning Crescent, 0% of the Moon is Illuminated
Today
Waning Crescent
Sep 24
New
Oct 1
First Quarter
Oct 8
Full
Oct 15
Last Quarter

Today's Extremes

State Highs State Lows

Community

WunderPhotos

Upload Photos

1,755,763 photos uploaded!

WunderBlogs® & News

Nearby

Snow Depth

Station Depth Elevation
North Lost Trail 0 in 9200 ft
Vail Mountain 85 in 10300 ft
Brumley 0 in 10600 ft
Porphyry Creek 0 in 10760 ft
Berthoud Summit 0 in 11300 ft

Earthquake Activity

City Distance Mag. Time & Date
No recent earthquake activity has been reported nearby.
Minimum magnitude displayed is 2.5.

Coastal Water Temperatures

Place Temperature
No Stations Reporting

Nearby Weather Stations